sensor_id;sensor_type;location;lat;lon;timestamp;P1;durP1;ratioP1;P2;durP2;ratioP2
16330;SDS011;8275;48.206;16.340;2023-04-25T00:00:04;2.20;;;2.00;;
16330;SDS011;8275;48.206;16.340;2023-04-25T00:02:35;1.83;;;1.58;;
16330;SDS011;8275;48.206;16.340;2023-04-25T00:05:04;1.50;;;1.40;;
16330;SDS011;8275;48.206;16.340;2023-04-25T00:07:33;3.28;;;1.73;;
16330;SDS011;8275;48.206;16.340;2023-04-25T00:10:02;2.38;;;1.83;;
16330;SDS011;8275;48.206;16.340;2023-04-25T00:12:32;1.83;;;1.73;;
16330;SDS011;8275;48.206;16.340;2023-04-25T00:15:00;1.92;;;1.83;;
16330;SDS011;8275;48.206;16.340;2023-04-25T00:17:31;2.20;;;1.83;;
16330;SDS011;8275;48.206;16.340;2023-04-25T00:20:01;2.00;;;1.80;;
16330;SDS011;8275;48.206;16.340;2023-04-25T00:22:35;2.13;;;1.92;;
16330;SDS011;8275;48.206;16.340;2023-04-25T00:25:04;20.17;;;2.10;;
16330;SDS011;8275;48.206;16.340;2023-04-25T00:27:34;2.78;;;2.10;;
16330;SDS011;8275;48.206;16.340;2023-04-25T00:30:03;1.90;;;1.70;;
16330;SDS011;8275;48.206;16.340;2023-04-25T00:32:34;2.30;;;1.85;;
16330;SDS011;8275;48.206;16.340;2023-04-25T00:35:03;2.00;;;1.90;;
16330;SDS011;8275;48.206;16.340;2023-04-25T00:37:32;2.42;;;2.22;;
16330;SDS011;8275;48.206;16.340;2023-04-25T00:40:01;2.90;;;1.98;;
16330;SDS011;8275;48.206;16.340;2023-04-25T00:42:32;3.28;;;1.90;;
16330;SDS011;8275;48.206;16.340;2023-04-25T00:45:02;2.00;;;1.90;;
16330;SDS011;8275;48.206;16.340;2023-04-25T00:47:36;1.35;;;1.25;;
16330;SDS011;8275;48.206;16.340;2023-04-25T00:50:06;3.78;;;2.28;;
16330;SDS011;8275;48.206;16.340;2023-04-25T00:52:35;2.53;;;2.33;;
16330;SDS011;8275;48.206;16.340;2023-04-25T00:55:05;2.55;;;2.35;;
16330;SDS011;8275;48.206;16.340;2023-04-25T00:57:34;2.47;;;2.28;;
16330;SDS011;8275;48.206;16.340;2023-04-25T01:00:03;2.38;;;2.17;;
16330;SDS011;8275;48.206;16.340;2023-04-25T01:02:33;2.15;;;1.83;;
16330;SDS011;8275;48.206;16.340;2023-04-25T01:05:04;5.70;;;2.15;;
16330;SDS011;8275;48.206;16.340;2023-04-25T01:07:33;2.72;;;2.53;;
16330;SDS011;8275;48.206;16.340;2023-04-25T01:10:02;3.42;;;2.40;;
16330;SDS011;8275;48.206;16.340;2023-04-25T01:12:33;2.45;;;2.25;;
16330;SDS011;8275;48.206;16.340;2023-04-25T01:15:02;2.30;;;1.90;;
16330;SDS011;8275;48.206;16.340;2023-04-25T01:17:33;2.38;;;2.17;;
16330;SDS011;8275;48.206;16.340;2023-04-25T01:20:05;1.88;;;1.77;;
16330;SDS011;8275;48.206;16.340;2023-04-25T01:22:37;2.38;;;2.17;;
16330;SDS011;8275;48.206;16.340;2023-04-25T01:25:06;2.58;;;2.38;;
16330;SDS011;8275;48.206;16.340;2023-04-25T01:27:36;4.88;;;2.70;;
16330;SDS011;8275;48.206;16.340;2023-04-25T01:30:06;2.80;;;2.60;;
16330;SDS011;8275;48.206;16.340;2023-04-25T01:32:36;2.33;;;2.13;;
16330;SDS011;8275;48.206;16.340;2023-04-25T01:35:05;2.38;;;2.17;;
16330;SDS011;8275;48.206;16.340;2023-04-25T01:37:38;2.63;;;2.30;;
16330;SDS011;8275;48.206;16.340;2023-04-25T01:40:08;3.65;;;2.47;;
16330;SDS011;8275;48.206;16.340;2023-04-25T01:42:38;3.47;;;2.58;;
16330;SDS011;8275;48.206;16.340;2023-04-25T01:45:09;2.65;;;2.20;;
16330;SDS011;8275;48.206;16.340;2023-04-25T01:47:39;1.55;;;1.45;;
16330;SDS011;8275;48.206;16.340;2023-04-25T01:50:10;3.38;;;2.20;;
16330;SDS011;8275;48.206;16.340;2023-04-25T01:52:40;2.47;;;2.28;;
16330;SDS011;8275;48.206;16.340;2023-04-25T01:55:09;2.85;;;2.08;;
16330;SDS011;8275;48.206;16.340;2023-04-25T01:57:37;6.35;;;2.45;;
16330;SDS011;8275;48.206;16.340;2023-04-25T02:00:06;6.68;;;2.63;;
16330;SDS011;8275;48.206;16.340;2023-04-25T02:02:36;3.42;;;2.20;;
16330;SDS011;8275;48.206;16.340;2023-04-25T02:05:05;2.88;;;2.60;;
16330;SDS011;8275;48.206;16.340;2023-04-25T02:07:34;1.98;;;1.77;;
16330;SDS011;8275;48.206;16.340;2023-04-25T02:10:05;2.90;;;2.17;;
16330;SDS011;8275;48.206;16.340;2023-04-25T02:12:35;1.95;;;1.85;;
16330;SDS011;8275;48.206;16.340;2023-04-25T02:15:04;2.47;;;2.28;;
16330;SDS011;8275;48.206;16.340;2023-04-25T02:17:33;2.80;;;2.60;;
16330;SDS011;8275;48.206;16.340;2023-04-25T02:20:02;3.67;;;2.38;;
16330;SDS011;8275;48.206;16.340;2023-04-25T02:22:32;2.80;;;2.60;;
16330;SDS011;8275;48.206;16.340;2023-04-25T02:25:01;2.33;;;2.13;;
16330;SDS011;8275;48.206;16.340;2023-04-25T02:27:32;2.55;;;2.35;;
16330;SDS011;8275;48.206;16.340;2023-04-25T02:30:01;2.75;;;2.55;;
16330;SDS011;8275;48.206;16.340;2023-04-25T02:32:31;2.42;;;2.22;;
16330;SDS011;8275;48.206;16.340;2023-04-25T02:35:00;2.70;;;2.50;;
16330;SDS011;8275;48.206;16.340;2023-04-25T02:37:30;4.35;;;2.15;;
16330;SDS011;8275;48.206;16.340;2023-04-25T02:39:59;2.45;;;2.25;;
16330;SDS011;8275;48.206;16.340;2023-04-25T02:42:29;2.35;;;2.10;;
16330;SDS011;8275;48.206;16.340;2023-04-25T02:44:59;2.50;;;2.30;;
16330;SDS011;8275;48.206;16.340;2023-04-25T02:47:28;2.97;;;2.72;;
16330;SDS011;8275;48.206;16.340;2023-04-25T02:49:56;2.33;;;2.17;;
16330;SDS011;8275;48.206;16.340;2023-04-25T02:52:25;2.88;;;2.63;;
16330;SDS011;8275;48.206;16.340;2023-04-25T02:54:53;2.40;;;2.20;;
16330;SDS011;8275;48.206;16.340;2023-04-25T02:57:21;2.45;;;2.25;;
16330;SDS011;8275;48.206;16.340;2023-04-25T02:59:50;2.75;;;2.55;;
16330;SDS011;8275;48.206;16.340;2023-04-25T03:02:20;2.03;;;1.90;;
16330;SDS011;8275;48.206;16.340;2023-04-25T03:04:48;3.35;;;2.65;;
16330;SDS011;8275;48.206;16.340;2023-04-25T03:07:16;2.33;;;2.17;;
16330;SDS011;8275;48.206;16.340;2023-04-25T03:09:45;3.33;;;2.97;;
16330;SDS011;8275;48.206;16.340;2023-04-25T03:12:13;2.53;;;2.13;;
16330;SDS011;8275;48.206;16.340;2023-04-25T03:14:43;3.67;;;2.90;;
16330;SDS011;8275;48.206;16.340;2023-04-25T03:17:11;2.97;;;2.70;;
16330;SDS011;8275;48.206;16.340;2023-04-25T03:19:41;2.45;;;2.25;;
16330;SDS011;8275;48.206;16.340;2023-04-25T03:22:09;9.43;;;2.30;;
16330;SDS011;8275;48.206;16.340;2023-04-25T03:24:38;2.20;;;2.00;;
16330;SDS011;8275;48.206;16.340;2023-04-25T03:27:06;2.92;;;2.58;;
16330;SDS011;8275;48.206;16.340;2023-04-25T03:29:35;3.05;;;2.70;;
16330;SDS011;8275;48.206;16.340;2023-04-25T03:32:03;3.28;;;2.60;;
16330;SDS011;8275;48.206;16.340;2023-04-25T03:34:32;2.13;;;1.95;;
16330;SDS011;8275;48.206;16.340;2023-04-25T03:37:02;2.70;;;2.28;;
16330;SDS011;8275;48.206;16.340;2023-04-25T03:39:30;2.55;;;2.35;;
16330;SDS011;8275;48.206;16.340;2023-04-25T03:41:59;3.17;;;2.65;;
16330;SDS011;8275;48.206;16.340;2023-04-25T03:44:27;4.35;;;2.55;;
16330;SDS011;8275;48.206;16.340;2023-04-25T03:46:56;3.20;;;2.90;;
16330;SDS011;8275;48.206;16.340;2023-04-25T03:49:24;2.72;;;2.53;;
16330;SDS011;8275;48.206;16.340;2023-04-25T03:51:53;2.78;;;2.58;;
16330;SDS011;8275;48.206;16.340;2023-04-25T03:54:22;2.58;;;2.38;;
16330;SDS011;8275;48.206;16.340;2023-04-25T03:56:51;3.28;;;2.97;;
16330;SDS011;8275;48.206;16.340;2023-04-25T03:59:19;2.45;;;2.25;;
16330;SDS011;8275;48.206;16.340;2023-04-25T04:01:47;3.47;;;2.58;;
16330;SDS011;8275;48.206;16.340;2023-04-25T04:04:16;4.00;;;2.67;;
16330;SDS011;8275;48.206;16.340;2023-04-25T04:06:45;2.85;;;2.65;;
16330;SDS011;8275;48.206;16.340;2023-04-25T04:09:13;2.80;;;2.30;;
16330;SDS011;8275;48.206;16.340;2023-04-25T04:11:43;2.53;;;2.20;;
16330;SDS011;8275;48.206;16.340;2023-04-25T04:14:11;2.55;;;2.38;;
16330;SDS011;8275;48.206;16.340;2023-04-25T04:16:40;3.17;;;2.78;;
16330;SDS011;8275;48.206;16.340;2023-04-25T04:19:09;2.83;;;2.58;;
16330;SDS011;8275;48.206;16.340;2023-04-25T04:21:37;3.13;;;2.67;;
16330;SDS011;8275;48.206;16.340;2023-04-25T04:24:05;3.35;;;3.15;;
16330;SDS011;8275;48.206;16.340;2023-04-25T04:26:34;2.85;;;2.63;;
16330;SDS011;8275;48.206;16.340;2023-04-25T04:29:04;3.85;;;3.10;;
16330;SDS011;8275;48.206;16.340;2023-04-25T04:31:33;4.20;;;3.22;;
16330;SDS011;8275;48.206;16.340;2023-04-25T04:34:02;3.53;;;3.22;;
16330;SDS011;8275;48.206;16.340;2023-04-25T04:36:31;3.60;;;3.22;;
16330;SDS011;8275;48.206;16.340;2023-04-25T04:38:59;3.67;;;3.30;;
16330;SDS011;8275;48.206;16.340;2023-04-25T04:41:29;3.17;;;2.92;;
16330;SDS011;8275;48.206;16.340;2023-04-25T04:43:58;3.60;;;3.13;;
16330;SDS011;8275;48.206;16.340;2023-04-25T04:46:28;4.10;;;3.20;;
16330;SDS011;8275;48.206;16.340;2023-04-25T04:48:57;2.90;;;2.70;;
16330;SDS011;8275;48.206;16.340;2023-04-25T04:51:26;2.85;;;2.65;;
16330;SDS011;8275;48.206;16.340;2023-04-25T04:53:54;5.28;;;3.28;;
16330;SDS011;8275;48.206;16.340;2023-04-25T04:56:24;5.93;;;3.25;;
16330;SDS011;8275;48.206;16.340;2023-04-25T04:58:54;3.47;;;3.17;;
16330;SDS011;8275;48.206;16.340;2023-04-25T05:01:23;2.78;;;2.58;;
16330;SDS011;8275;48.206;16.340;2023-04-25T05:03:53;3.55;;;3.10;;
16330;SDS011;8275;48.206;16.340;2023-04-25T05:06:27;6.47;;;3.10;;
16330;SDS011;8275;48.206;16.340;2023-04-25T05:08:56;4.15;;;3.33;;
16330;SDS011;8275;48.206;16.340;2023-04-25T05:11:25;3.65;;;3.17;;
16330;SDS011;8275;48.206;16.340;2023-04-25T05:13:53;4.10;;;2.83;;
16330;SDS011;8275;48.206;16.340;2023-04-25T05:16:22;3.47;;;2.88;;
16330;SDS011;8275;48.206;16.340;2023-04-25T05:18:51;3.85;;;3.20;;
16330;SDS011;8275;48.206;16.340;2023-04-25T05:21:20;3.72;;;3.42;;
16330;SDS011;8275;48.206;16.340;2023-04-25T05:23:49;3.13;;;2.83;;
16330;SDS011;8275;48.206;16.340;2023-04-25T05:26:18;3.17;;;2.65;;
16330;SDS011;8275;48.206;16.340;2023-04-25T05:28:47;3.63;;;3.33;;
16330;SDS011;8275;48.206;16.340;2023-04-25T05:31:17;4.07;;;3.78;;
16330;SDS011;8275;48.206;16.340;2023-04-25T05:33:45;4.13;;;3.67;;
16330;SDS011;8275;48.206;16.340;2023-04-25T05:36:14;4.20;;;3.90;;
16330;SDS011;8275;48.206;16.340;2023-04-25T05:38:44;5.25;;;3.60;;
16330;SDS011;8275;48.206;16.340;2023-04-25T05:41:12;4.20;;;3.50;;
16330;SDS011;8275;48.206;16.340;2023-04-25T05:43:40;3.70;;;3.40;;
16330;SDS011;8275;48.206;16.340;2023-04-25T05:46:13;3.88;;;3.20;;
16330;SDS011;8275;48.206;16.340;2023-04-25T05:48:43;5.18;;;3.60;;
16330;SDS011;8275;48.206;16.340;2023-04-25T05:51:12;4.53;;;3.25;;
16330;SDS011;8275;48.206;16.340;2023-04-25T05:53:41;3.13;;;2.63;;
16330;SDS011;8275;48.206;16.340;2023-04-25T05:56:11;3.92;;;3.53;;
16330;SDS011;8275;48.206;16.340;2023-04-25T05:58:39;3.85;;;3.28;;
16330;SDS011;8275;48.206;16.340;2023-04-25T06:01:08;3.08;;;2.85;;
16330;SDS011;8275;48.206;16.340;2023-04-25T06:03:36;3.45;;;3.17;;
16330;SDS011;8275;48.206;16.340;2023-04-25T06:06:05;4.22;;;3.05;;
16330;SDS011;8275;48.206;16.340;2023-04-25T06:08:34;3.22;;;2.90;;
16330;SDS011;8275;48.206;16.340;2023-04-25T06:11:02;3.55;;;3.20;;
16330;SDS011;8275;48.206;16.340;2023-04-25T06:13:32;3.45;;;3.15;;
16330;SDS011;8275;48.206;16.340;2023-04-25T06:16:01;3.53;;;3.22;;
16330;SDS011;8275;48.206;16.340;2023-04-25T06:18:29;3.40;;;2.88;;
16330;SDS011;8275;48.206;16.340;2023-04-25T06:20:58;3.10;;;2.80;;
16330;SDS011;8275;48.206;16.340;2023-04-25T06:23:26;3.70;;;2.75;;
16330;SDS011;8275;48.206;16.340;2023-04-25T06:25:55;3.92;;;3.13;;
16330;SDS011;8275;48.206;16.340;2023-04-25T06:28:23;3.03;;;2.67;;
16330;SDS011;8275;48.206;16.340;2023-04-25T06:30:53;3.60;;;3.10;;
16330;SDS011;8275;48.206;16.340;2023-04-25T06:33:21;10.98;;;3.05;;
16330;SDS011;8275;48.206;16.340;2023-04-25T06:35:50;4.07;;;3.05;;
16330;SDS011;8275;48.206;16.340;2023-04-25T06:38:19;2.75;;;2.50;;
16330;SDS011;8275;48.206;16.340;2023-04-25T06:40:47;6.80;;;3.08;;
16330;SDS011;8275;48.206;16.340;2023-04-25T06:43:15;3.72;;;2.67;;
16330;SDS011;8275;48.206;16.340;2023-04-25T06:45:44;3.03;;;2.80;;
16330;SDS011;8275;48.206;16.340;2023-04-25T06:48:15;3.20;;;2.78;;
16330;SDS011;8275;48.206;16.340;2023-04-25T06:50:43;4.38;;;3.08;;
16330;SDS011;8275;48.206;16.340;2023-04-25T06:53:12;3.05;;;2.83;;
16330;SDS011;8275;48.206;16.340;2023-04-25T06:55:40;7.57;;;2.90;;
16330;SDS011;8275;48.206;16.340;2023-04-25T06:58:09;3.05;;;2.80;;
16330;SDS011;8275;48.206;16.340;2023-04-25T07:00:37;5.13;;;2.55;;
16330;SDS011;8275;48.206;16.340;2023-04-25T07:03:05;3.88;;;3.08;;
16330;SDS011;8275;48.206;16.340;2023-04-25T07:05:35;3.33;;;3.05;;
16330;SDS011;8275;48.206;16.340;2023-04-25T07:08:04;2.90;;;2.63;;
16330;SDS011;8275;48.206;16.340;2023-04-25T07:10:33;3.60;;;3.30;;
16330;SDS011;8275;48.206;16.340;2023-04-25T07:13:01;5.35;;;2.85;;
16330;SDS011;8275;48.206;16.340;2023-04-25T07:15:30;3.33;;;3.03;;
16330;SDS011;8275;48.206;16.340;2023-04-25T07:17:58;3.50;;;3.20;;
16330;SDS011;8275;48.206;16.340;2023-04-25T07:20:27;4.55;;;3.15;;
16330;SDS011;8275;48.206;16.340;2023-04-25T07:22:58;3.42;;;2.92;;
16330;SDS011;8275;48.206;16.340;2023-04-25T07:25:27;6.25;;;3.45;;
16330;SDS011;8275;48.206;16.340;2023-04-25T07:27:56;3.63;;;2.65;;
16330;SDS011;8275;48.206;16.340;2023-04-25T07:30:25;2.92;;;2.72;;
16330;SDS011;8275;48.206;16.340;2023-04-25T07:32:53;3.20;;;2.40;;
16330;SDS011;8275;48.206;16.340;2023-04-25T07:35:22;2.85;;;2.65;;
16330;SDS011;8275;48.206;16.340;2023-04-25T07:37:50;6.35;;;2.92;;
16330;SDS011;8275;48.206;16.340;2023-04-25T07:40:20;6.32;;;2.75;;
16330;SDS011;8275;48.206;16.340;2023-04-25T07:42:49;2.72;;;2.53;;
16330;SDS011;8275;48.206;16.340;2023-04-25T07:45:17;3.53;;;3.22;;
16330;SDS011;8275;48.206;16.340;2023-04-25T07:47:46;4.55;;;3.65;;
16330;SDS011;8275;48.206;16.340;2023-04-25T07:50:15;3.03;;;2.58;;
16330;SDS011;8275;48.206;16.340;2023-04-25T07:52:43;3.83;;;3.20;;
16330;SDS011;8275;48.206;16.340;2023-04-25T07:55:12;3.10;;;2.88;;
16330;SDS011;8275;48.206;16.340;2023-04-25T07:57:42;3.40;;;3.20;;
16330;SDS011;8275;48.206;16.340;2023-04-25T08:00:11;3.28;;;3.05;;
16330;SDS011;8275;48.206;16.340;2023-04-25T08:02:41;3.55;;;3.25;;
16330;SDS011;8275;48.206;16.340;2023-04-25T08:05:10;3.33;;;3.03;;
16330;SDS011;8275;48.206;16.340;2023-04-25T08:07:41;4.05;;;3.70;;
16330;SDS011;8275;48.206;16.340;2023-04-25T08:10:10;4.82;;;4.20;;
16330;SDS011;8275;48.206;16.340;2023-04-25T08:12:38;4.75;;;4.15;;
16330;SDS011;8275;48.206;16.340;2023-04-25T08:15:08;5.03;;;3.67;;
16330;SDS011;8275;48.206;16.340;2023-04-25T08:17:40;3.42;;;3.20;;
16330;SDS011;8275;48.206;16.340;2023-04-25T08:20:10;4.85;;;3.80;;
16330;SDS011;8275;48.206;16.340;2023-04-25T08:22:39;3.65;;;3.22;;
16330;SDS011;8275;48.206;16.340;2023-04-25T08:25:08;2.78;;;2.58;;
16330;SDS011;8275;48.206;16.340;2023-04-25T08:27:37;4.45;;;3.53;;
16330;SDS011;8275;48.206;16.340;2023-04-25T08:30:06;3.17;;;2.75;;
16330;SDS011;8275;48.206;16.340;2023-04-25T08:32:37;4.15;;;3.15;;
16330;SDS011;8275;48.206;16.340;2023-04-25T08:35:06;4.25;;;3.80;;
16330;SDS011;8275;48.206;16.340;2023-04-25T08:37:35;3.97;;;2.95;;
16330;SDS011;8275;48.206;16.340;2023-04-25T08:40:05;3.17;;;2.92;;
16330;SDS011;8275;48.206;16.340;2023-04-25T08:42:38;4.45;;;3.42;;
16330;SDS011;8275;48.206;16.340;2023-04-25T08:45:10;2.53;;;2.33;;
16330;SDS011;8275;48.206;16.340;2023-04-25T08:47:39;8.48;;;3.47;;
16330;SDS011;8275;48.206;16.340;2023-04-25T08:50:08;3.35;;;2.65;;
16330;SDS011;8275;48.206;16.340;2023-04-25T08:52:37;4.18;;;2.72;;
16330;SDS011;8275;48.206;16.340;2023-04-25T08:55:11;5.22;;;3.15;;
16330;SDS011;8275;48.206;16.340;2023-04-25T08:57:41;7.55;;;2.80;;
16330;SDS011;8275;48.206;16.340;2023-04-25T09:00:13;3.55;;;3.08;;
16330;SDS011;8275;48.206;16.340;2023-04-25T09:02:42;16.38;;;3.42;;
16330;SDS011;8275;48.206;16.340;2023-04-25T09:05:12;3.83;;;2.75;;
16330;SDS011;8275;48.206;16.340;2023-04-25T09:07:41;6.30;;;2.97;;
16330;SDS011;8275;48.206;16.340;2023-04-25T09:10:10;2.85;;;2.65;;
16330;SDS011;8275;48.206;16.340;2023-04-25T09:12:38;3.63;;;3.30;;
16330;SDS011;8275;48.206;16.340;2023-04-25T09:15:08;4.88;;;3.42;;
16330;SDS011;8275;48.206;16.340;2023-04-25T09:17:47;4.78;;;3.05;;
16330;SDS011;8275;48.206;16.340;2023-04-25T09:20:24;4.57;;;4.13;;
16330;SDS011;8275;48.206;16.340;2023-04-25T09:23:02;3.88;;;3.50;;
16330;SDS011;8275;48.206;16.340;2023-04-25T09:25:34;5.97;;;3.92;;
16330;SDS011;8275;48.206;16.340;2023-04-25T09:28:05;4.78;;;3.63;;
16330;SDS011;8275;48.206;16.340;2023-04-25T09:30:34;3.25;;;2.80;;
16330;SDS011;8275;48.206;16.340;2023-04-25T09:33:06;3.45;;;3.15;;
16330;SDS011;8275;48.206;16.340;2023-04-25T09:35:36;2.97;;;2.75;;
16330;SDS011;8275;48.206;16.340;2023-04-25T09:38:09;3.92;;;3.30;;
16330;SDS011;8275;48.206;16.340;2023-04-25T09:40:39;4.10;;;3.10;;
16330;SDS011;8275;48.206;16.340;2023-04-25T09:43:18;2.90;;;2.70;;
16330;SDS011;8275;48.206;16.340;2023-04-25T09:45:48;2.70;;;2.50;;
16330;SDS011;8275;48.206;16.340;2023-04-25T09:48:19;8.05;;;2.65;;
16330;SDS011;8275;48.206;16.340;2023-04-25T09:50:59;5.55;;;2.70;;
16330;SDS011;8275;48.206;16.340;2023-04-25T09:53:33;2.03;;;1.92;;
16330;SDS011;8275;48.206;16.340;2023-04-25T09:56:03;1.65;;;1.55;;
16330;SDS011;8275;48.206;16.340;2023-04-25T09:58:33;2.63;;;2.42;;
16330;SDS011;8275;48.206;16.340;2023-04-25T10:01:04;3.38;;;2.17;;
16330;SDS011;8275;48.206;16.340;2023-04-25T10:03:36;2.10;;;1.52;;
16330;SDS011;8275;48.206;16.340;2023-04-25T10:06:07;1.55;;;1.30;;
16330;SDS011;8275;48.206;16.340;2023-04-25T10:08:40;1.50;;;0.90;;
16330;SDS011;8275;48.206;16.340;2023-04-25T10:11:10;1.10;;;1.10;;
16330;SDS011;8275;48.206;16.340;2023-04-25T10:13:42;2.38;;;1.52;;
16330;SDS011;8275;48.206;16.340;2023-04-25T10:16:11;2.53;;;1.67;;
16330;SDS011;8275;48.206;16.340;2023-04-25T10:18:44;1.95;;;1.60;;
16330;SDS011;8275;48.206;16.340;2023-04-25T10:21:12;2.10;;;1.40;;
16330;SDS011;8275;48.206;16.340;2023-04-25T10:23:42;1.30;;;1.05;;
16330;SDS011;8275;48.206;16.340;2023-04-25T10:26:11;2.63;;;1.75;;
16330;SDS011;8275;48.206;16.340;2023-04-25T10:31:33;3.90;;;1.67;;
16330;SDS011;8275;48.206;16.340;2023-04-25T10:34:13;3.08;;;1.92;;
16330;SDS011;8275;48.206;16.340;2023-04-25T10:36:42;2.33;;;1.80;;
16330;SDS011;8275;48.206;16.340;2023-04-25T10:39:21;1.27;;;1.13;;
16330;SDS011;8275;48.206;16.340;2023-04-25T10:41:55;1.60;;;1.23;;
16330;SDS011;8275;48.206;16.340;2023-04-25T10:44:26;1.27;;;1.25;;
16330;SDS011;8275;48.206;16.340;2023-04-25T10:46:55;2.85;;;1.67;;
16330;SDS011;8275;48.206;16.340;2023-04-25T10:49:30;1.55;;;1.45;;
16330;SDS011;8275;48.206;16.340;2023-04-25T10:52:16;1.75;;;1.65;;
16330;SDS011;8275;48.206;16.340;2023-04-25T10:54:52;3.10;;;1.35;;
16330;SDS011;8275;48.206;16.340;2023-04-25T10:57:31;1.67;;;1.58;;
16330;SDS011;8275;48.206;16.340;2023-04-25T11:00:05;3.05;;;1.58;;
16330;SDS011;8275;48.206;16.340;2023-04-25T11:02:43;2.55;;;2.30;;
16330;SDS011;8275;48.206;16.340;2023-04-25T11:05:20;2.45;;;2.25;;
16330;SDS011;8275;48.206;16.340;2023-04-25T11:07:55;2.63;;;2.08;;
16330;SDS011;8275;48.206;16.340;2023-04-25T11:10:33;1.90;;;1.80;;
16330;SDS011;8275;48.206;16.340;2023-04-25T11:13:02;4.38;;;2.08;;
16330;SDS011;8275;48.206;16.340;2023-04-25T11:15:31;3.75;;;3.38;;
16330;SDS011;8275;48.206;16.340;2023-04-25T11:18:00;1.73;;;1.63;;
16330;SDS011;8275;48.206;16.340;2023-04-25T11:20:30;2.00;;;1.90;;
16330;SDS011;8275;48.206;16.340;2023-04-25T11:22:59;3.33;;;2.45;;
16330;SDS011;8275;48.206;16.340;2023-04-25T11:25:32;2.15;;;1.77;;
16330;SDS011;8275;48.206;16.340;2023-04-25T11:28:04;3.03;;;2.72;;
16330;SDS011;8275;48.206;16.340;2023-04-25T11:30:32;2.85;;;2.53;;
16330;SDS011;8275;48.206;16.340;2023-04-25T11:33:01;4.53;;;2.20;;
16330;SDS011;8275;48.206;16.340;2023-04-25T11:35:31;1.95;;;1.77;;
16330;SDS011;8275;48.206;16.340;2023-04-25T11:38:00;4.35;;;2.10;;
16330;SDS011;8275;48.206;16.340;2023-04-25T11:40:29;4.18;;;2.30;;
16330;SDS011;8275;48.206;16.340;2023-04-25T11:42:59;3.10;;;1.88;;
16330;SDS011;8275;48.206;16.340;2023-04-25T11:45:28;2.65;;;2.45;;
16330;SDS011;8275;48.206;16.340;2023-04-25T11:47:58;2.42;;;2.05;;
16330;SDS011;8275;48.206;16.340;2023-04-25T11:50:26;2.67;;;2.15;;
16330;SDS011;8275;48.206;16.340;2023-04-25T11:52:57;2.25;;;2.13;;
16330;SDS011;8275;48.206;16.340;2023-04-25T11:55:26;2.42;;;2.22;;
16330;SDS011;8275;48.206;16.340;2023-04-25T11:57:59;1.75;;;1.65;;
16330;SDS011;8275;48.206;16.340;2023-04-25T12:00:28;3.97;;;2.42;;
16330;SDS011;8275;48.206;16.340;2023-04-25T12:02:57;2.60;;;2.40;;
16330;SDS011;8275;48.206;16.340;2023-04-25T12:05:26;3.85;;;2.80;;
16330;SDS011;8275;48.206;16.340;2023-04-25T12:08:10;3.50;;;2.63;;
16330;SDS011;8275;48.206;16.340;2023-04-25T12:10:40;4.53;;;2.55;;
16330;SDS011;8275;48.206;16.340;2023-04-25T12:13:20;3.17;;;2.38;;
16330;SDS011;8275;48.206;16.340;2023-04-25T12:15:51;2.35;;;2.00;;
16330;SDS011;8275;48.206;16.340;2023-04-25T12:18:22;2.72;;;2.20;;
16330;SDS011;8275;48.206;16.340;2023-04-25T12:20:53;2.33;;;1.65;;
16330;SDS011;8275;48.206;16.340;2023-04-25T12:23:27;2.00;;;1.80;;
16330;SDS011;8275;48.206;16.340;2023-04-25T12:25:57;3.00;;;1.98;;
16330;SDS011;8275;48.206;16.340;2023-04-25T12:28:25;3.28;;;1.52;;
16330;SDS011;8275;48.206;16.340;2023-04-25T12:30:54;1.63;;;1.52;;
16330;SDS011;8275;48.206;16.340;2023-04-25T12:33:25;1.40;;;1.13;;
16330;SDS011;8275;48.206;16.340;2023-04-25T12:35:56;2.65;;;1.58;;
16330;SDS011;8275;48.206;16.340;2023-04-25T12:38:28;1.40;;;1.30;;
16330;SDS011;8275;48.206;16.340;2023-04-25T12:40:57;1.55;;;1.40;;
16330;SDS011;8275;48.206;16.340;2023-04-25T12:43:26;1.73;;;1.63;;
16330;SDS011;8275;48.206;16.340;2023-04-25T12:45:55;4.47;;;2.15;;
16330;SDS011;8275;48.206;16.340;2023-04-25T12:48:25;1.52;;;1.38;;
16330;SDS011;8275;48.206;16.340;2023-04-25T12:50:54;2.33;;;2.13;;
16330;SDS011;8275;48.206;16.340;2023-04-25T12:53:22;2.15;;;1.20;;
16330;SDS011;8275;48.206;16.340;2023-04-25T12:55:52;1.48;;;1.38;;
16330;SDS011;8275;48.206;16.340;2023-04-25T12:58:26;2.78;;;2.53;;
16330;SDS011;8275;48.206;16.340;2023-04-25T13:00:54;1.52;;;1.42;;
16330;SDS011;8275;48.206;16.340;2023-04-25T13:03:23;1.52;;;1.42;;
16330;SDS011;8275;48.206;16.340;2023-04-25T13:05:52;1.88;;;1.40;;
16330;SDS011;8275;48.206;16.340;2023-04-25T13:08:20;1.58;;;1.48;;
16330;SDS011;8275;48.206;16.340;2023-04-25T13:10:49;2.28;;;1.20;;
16330;SDS011;8275;48.206;16.340;2023-04-25T13:13:18;2.78;;;2.30;;
16330;SDS011;8275;48.206;16.340;2023-04-25T13:15:47;2.05;;;1.55;;
16330;SDS011;8275;48.206;16.340;2023-04-25T13:18:18;1.88;;;1.38;;
16330;SDS011;8275;48.206;16.340;2023-04-25T13:20:47;2.60;;;1.65;;
16330;SDS011;8275;48.206;16.340;2023-04-25T13:23:15;1.65;;;1.55;;
16330;SDS011;8275;48.206;16.340;2023-04-25T13:25:44;1.77;;;1.67;;
16330;SDS011;8275;48.206;16.340;2023-04-25T13:28:12;1.20;;;1.08;;
16330;SDS011;8275;48.206;16.340;2023-04-25T13:30:42;1.38;;;1.38;;
16330;SDS011;8275;48.206;16.340;2023-04-25T13:33:11;1.20;;;1.20;;
16330;SDS011;8275;48.206;16.340;2023-04-25T13:35:40;1.00;;;1.00;;
16330;SDS011;8275;48.206;16.340;2023-04-25T13:38:09;1.42;;;1.33;;
16330;SDS011;8275;48.206;16.340;2023-04-25T13:40:38;1.08;;;0.98;;
16330;SDS011;8275;48.206;16.340;2023-04-25T13:43:06;1.40;;;1.05;;
16330;SDS011;8275;48.206;16.340;2023-04-25T13:45:34;1.00;;;1.00;;
16330;SDS011;8275;48.206;16.340;2023-04-25T13:48:05;2.75;;;1.33;;
16330;SDS011;8275;48.206;16.340;2023-04-25T13:50:33;1.45;;;1.35;;
16330;SDS011;8275;48.206;16.340;2023-04-25T13:53:02;4.10;;;1.35;;
16330;SDS011;8275;48.206;16.340;2023-04-25T13:55:30;1.42;;;1.33;;
16330;SDS011;8275;48.206;16.340;2023-04-25T13:57:59;1.45;;;1.35;;
16330;SDS011;8275;48.206;16.340;2023-04-25T14:00:34;1.27;;;1.17;;
16330;SDS011;8275;48.206;16.340;2023-04-25T14:03:07;1.63;;;1.50;;
16330;SDS011;8275;48.206;16.340;2023-04-25T14:05:36;1.35;;;1.30;;
16330;SDS011;8275;48.206;16.340;2023-04-25T14:08:05;2.08;;;1.10;;
16330;SDS011;8275;48.206;16.340;2023-04-25T14:10:36;1.13;;;1.05;;
16330;SDS011;8275;48.206;16.340;2023-04-25T14:13:04;0.88;;;0.88;;
16330;SDS011;8275;48.206;16.340;2023-04-25T14:15:36;1.05;;;0.88;;
16330;SDS011;8275;48.206;16.340;2023-04-25T14:18:06;0.80;;;0.80;;
16330;SDS011;8275;48.206;16.340;2023-04-25T14:20:34;0.90;;;0.90;;
16330;SDS011;8275;48.206;16.340;2023-04-25T14:23:03;1.50;;;1.40;;
16330;SDS011;8275;48.206;16.340;2023-04-25T14:25:31;1.50;;;1.40;;
16330;SDS011;8275;48.206;16.340;2023-04-25T14:28:00;1.05;;;1.05;;
16330;SDS011;8275;48.206;16.340;2023-04-25T14:30:28;1.13;;;1.02;;
16330;SDS011;8275;48.206;16.340;2023-04-25T14:32:57;1.33;;;1.30;;
16330;SDS011;8275;48.206;16.340;2023-04-25T14:35:27;1.33;;;1.20;;
16330;SDS011;8275;48.206;16.340;2023-04-25T14:37:55;1.00;;;1.00;;
16330;SDS011;8275;48.206;16.340;2023-04-25T14:40:24;1.65;;;1.20;;
16330;SDS011;8275;48.206;16.340;2023-04-25T14:42:53;1.27;;;0.98;;
16330;SDS011;8275;48.206;16.340;2023-04-25T14:45:22;1.80;;;1.70;;
16330;SDS011;8275;48.206;16.340;2023-04-25T14:47:51;3.85;;;1.50;;
16330;SDS011;8275;48.206;16.340;2023-04-25T14:50:19;2.42;;;2.10;;
16330;SDS011;8275;48.206;16.340;2023-04-25T14:52:49;2.17;;;2.00;;
16330;SDS011;8275;48.206;16.340;2023-04-25T14:55:19;3.53;;;2.10;;
16330;SDS011;8275;48.206;16.340;2023-04-25T14:57:47;1.00;;;1.00;;
16330;SDS011;8275;48.206;16.340;2023-04-25T15:00:16;2.33;;;2.08;;
16330;SDS011;8275;48.206;16.340;2023-04-25T15:02:47;2.97;;;2.67;;
16330;SDS011;8275;48.206;16.340;2023-04-25T15:05:16;2.42;;;2.22;;